Dahlgren, Virginia
Current Conditions -  °F | °C
As of 1:56 AM on Saturday 20 Dec 2014 (Local Time) from KNYG Reporting Station
Clear Clear  
Wind Chill: -7°   Ceiling: Unl
Heat Index: -3°   Visibility: 10mi
Dew Point: -6°   Wind: 6mph
Humidity: 84%   Direction: 310°NW
Pressure: 30.28"   Gusts: NA
Location:  38.33°N, 77.05°W
Report Text: KNYG 200656Z AUTO 31005KT 10SM CLR M03/M06 A3028 RMK AO2 SLP256 T10331056 $
Loading
Personal Weather Stations






























Interactive Weather Map New forecast layout! Learn more

10-Day Weather Forecast

Advertisements
Track Severe Weather on mobile